Tropical Cyclones
[Index]
Main Index Home Page Stock Weather Photos Extreme Storms Discussion Storm News and Storm Chasing Reports Tropical Cyclones / Hurricanes / Typhoons Weather Data and Links Wild Fires / Bushfires Weather Observation Techniques Weather Picture Catalogue Tornado Pictures and Reports Stock Video Footage and DVDs for sale
Season 2011-2012 Tropical Cyclone FINA Track Map
Season 2011-2012 Summaries (Operational Data): [AU] [SIO] [SPAC] [SH]
<<- Previous TC | 2011-2012 Season | Next TC ->>

click for intensity scale information  Lat/long Grid: Show Hide

 Date Labels: Show Hide

Operational Tropical Cyclone Data : BoM Warnings

Name: FINA
Number: 12P1

19 Dec 2011 12:00 UTC to 29 Dec 2011 18:00 UTC

    date/time    lat    long     hPa   cat  kts
2011-12-19 12   12.5   153.2    1010         15          
2011-12-19 18   12.9   153.7    1010         15          
2011-12-20 00   13.3   154.2    1007         20          
2011-12-20 06   13.6   154.6    1007         20          
2011-12-20 12   14.0   155.2    1002         25          
2011-12-20 18   14.5   155.9    1004         25          
2011-12-21 00   15.3   156.6    1000         30          
2011-12-21 06   16.2   157.0    1000         30          
2011-12-21 12   17.2   157.5    1000         30          
2011-12-21 18   17.8   156.5    1000         30          
2011-12-22 00   18.6   156.0    1001         20          
2011-12-22 06   19.1   155.6    1007         20          
2011-12-22 12   19.5   155.0    1010         15          
2011-12-22 18   20.6   155.1    1010         15          
2011-12-23 00   21.2   155.0    1002                     
2011-12-23 06   21.5   155.1     998                     
2011-12-23 12   22.5   155.1    1001                     
2011-12-23 18   22.5   155.7     998                     
2011-12-24 00   22.6   157.1     999                     
2011-12-24 06   22.6   157.6     995                     
2011-12-24 12   23.1   157.9     997                     
2011-12-24 18   24.2   158.8     992                     
2011-12-25 00   24.9   159.1     995                     
2011-12-25 06   25.0   159.8     992                     
2011-12-25 12   25.2   160.2     993                     
2011-12-25 18   25.7   160.4     992                     
2011-12-26 00   26.9   161.2     992                     
2011-12-26 06   27.2   162.3     993                     
2011-12-26 12   27.4   163.2     994                     
2011-12-26 18   27.4   163.8     992                     
2011-12-27 00   27.5   164.9     995                     
2011-12-27 06   28.3   165.2     993                     
2011-12-27 12   29.0   165.2     994                     
2011-12-27 18   29.9   165.2     993                     
2011-12-28 00   30.4   166.0     994                     
2011-12-28 06   32.4   165.0     992                     
2011-12-26 12   32.7   164.6     994                     
2011-12-26 18   33.2   164.4     994                     
2011-12-27 00   33.2   165.0     997                     
2011-12-27 06   33.6   166.1     998                     
2011-12-27 12   33.2   167.2     998                     
2011-12-27 18   32.8   167.6     998                     
2011-12-28 00   33.3   167.8    1001                     
2011-12-28 06   33.1   169.3    1002                     
2011-12-28 12   34.3   170.6    1004                     
2011-12-28 18   34.6   171.1    1004                     
2011-12-29 00   35.1   172.3    1004                     
2011-12-29 06   35.3   172.6    1003                     
2011-12-29 12   36.8   173.8    1003                     
2011-12-29 18   37.6   174.6    1003                     
Winds are 10-min average.

Tropical cyclone tracks developed by Michael Bath using operational warnings and advisories and Google Maps.


[Australian Severe Weather index] [Copyright Notice] [Email Contacts] [Search This Site] [Privacy Policy]
Document: tropical_cyclone_fina.htm Updated: 2 May 2017